sensor_id;sensor_type;location;lat;lon;timestamp;pressure;altitude;pressure_sealevel;temperature;humidity
58668;BME280;59852;43.086;25.634;2022-10-31T00:00:39;99180.88;;;15.29;54.88
58668;BME280;59852;43.086;25.634;2022-10-31T00:03:05;99185.34;;;14.96;55.24
58668;BME280;59852;43.086;25.634;2022-10-31T00:05:30;99190.22;;;15.01;54.98
58668;BME280;59852;43.086;25.634;2022-10-31T00:07:56;99188.56;;;15.20;53.96
58668;BME280;59852;43.086;25.634;2022-10-31T00:10:21;99189.19;;;15.24;54.34
58668;BME280;59852;43.086;25.634;2022-10-31T00:12:46;99192.31;;;15.18;53.45
58668;BME280;59852;43.086;25.634;2022-10-31T00:15:11;99185.03;;;15.31;53.52
58668;BME280;59852;43.086;25.634;2022-10-31T00:17:37;99193.53;;;15.35;53.57
58668;BME280;59852;43.086;25.634;2022-10-31T00:20:02;99194.44;;;15.45;52.74
58668;BME280;59852;43.086;25.634;2022-10-31T00:22:28;99202.66;;;15.52;52.74
58668;BME280;59852;43.086;25.634;2022-10-31T00:24:53;99196.47;;;15.41;52.90
58668;BME280;59852;43.086;25.634;2022-10-31T00:27:18;99200.22;;;15.39;54.42
58668;BME280;59852;43.086;25.634;2022-10-31T00:29:44;99202.34;;;15.45;55.74
58668;BME280;59852;43.086;25.634;2022-10-31T00:32:09;99194.25;;;15.37;57.96
58668;BME280;59852;43.086;25.634;2022-10-31T00:34:34;99196.81;;;15.48;58.73
58668;BME280;59852;43.086;25.634;2022-10-31T00:37:00;99201.94;;;15.49;59.57
58668;BME280;59852;43.086;25.634;2022-10-31T00:39:25;99199.59;;;15.46;60.25
58668;BME280;59852;43.086;25.634;2022-10-31T00:41:50;99204.03;;;15.46;59.56
58668;BME280;59852;43.086;25.634;2022-10-31T00:44:16;99203.31;;;15.44;59.49
58668;BME280;59852;43.086;25.634;2022-10-31T00:46:41;99209.84;;;15.49;58.38
58668;BME280;59852;43.086;25.634;2022-10-31T00:49:06;99204.91;;;14.82;63.20
58668;BME280;59852;43.086;25.634;2022-10-31T00:51:32;99207.38;;;14.52;61.88
58668;BME280;59852;43.086;25.634;2022-10-31T00:53:57;99199.09;;;15.00;59.90
58668;BME280;59852;43.086;25.634;2022-10-31T00:56:22;99199.75;;;14.81;60.10
58668;BME280;59852;43.086;25.634;2022-10-31T00:58:47;99216.03;;;14.75;59.60
58668;BME280;59852;43.086;25.634;2022-10-31T01:01:13;99217.44;;;14.90;59.78
58668;BME280;59852;43.086;25.634;2022-10-31T01:03:38;99214.94;;;14.88;59.85
58668;BME280;59852;43.086;25.634;2022-10-31T01:08:30;99207.00;;;15.00;58.96
58668;BME280;59852;43.086;25.634;2022-10-31T01:11:37;99209.44;;;15.12;58.64
58668;BME280;59852;43.086;25.634;2022-10-31T01:13:44;99213.34;;;14.97;59.13
58668;BME280;59852;43.086;25.634;2022-10-31T01:16:10;99204.91;;;14.82;59.89
58668;BME280;59852;43.086;25.634;2022-10-31T01:18:36;99218.19;;;14.81;60.28
58668;BME280;59852;43.086;25.634;2022-10-31T01:21:35;99211.09;;;14.49;60.09
58668;BME280;59852;43.086;25.634;2022-10-31T01:23:54;99201.41;;;14.50;60.58
58668;BME280;59852;43.086;25.634;2022-10-31T01:26:29;99198.06;;;14.48;60.40
58668;BME280;59852;43.086;25.634;2022-10-31T01:29:02;99209.88;;;14.42;60.51
58668;BME280;59852;43.086;25.634;2022-10-31T01:31:29;99207.13;;;14.32;59.80
58668;BME280;59852;43.086;25.634;2022-10-31T01:33:55;99214.44;;;14.51;59.80
58668;BME280;59852;43.086;25.634;2022-10-31T01:36:34;99212.56;;;14.74;59.60
58668;BME280;59852;43.086;25.634;2022-10-31T01:39:01;99210.59;;;14.67;60.12
58668;BME280;59852;43.086;25.634;2022-10-31T01:41:27;99213.75;;;14.81;59.57
58668;BME280;59852;43.086;25.634;2022-10-31T01:43:54;99217.25;;;14.71;59.67
58668;BME280;59852;43.086;25.634;2022-10-31T01:46:21;99212.47;;;14.76;59.16
58668;BME280;59852;43.086;25.634;2022-10-31T01:48:48;99208.16;;;15.07;58.76
58668;BME280;59852;43.086;25.634;2022-10-31T01:51:13;99212.28;;;14.56;60.95
58668;BME280;59852;43.086;25.634;2022-10-31T01:53:39;99216.59;;;14.57;60.54
58668;BME280;59852;43.086;25.634;2022-10-31T01:56:06;99223.72;;;14.78;60.67
58668;BME280;59852;43.086;25.634;2022-10-31T01:58:32;99225.78;;;14.63;60.78
58668;BME280;59852;43.086;25.634;2022-10-31T02:00:59;99223.81;;;14.87;60.08
58668;BME280;59852;43.086;25.634;2022-10-31T02:03:25;99221.84;;;14.57;60.58
58668;BME280;59852;43.086;25.634;2022-10-31T02:05:51;99229.38;;;14.62;60.14
58668;BME280;59852;43.086;25.634;2022-10-31T02:08:31;99226.50;;;14.43;60.48
58668;BME280;59852;43.086;25.634;2022-10-31T02:10:58;99235.13;;;14.33;60.89
58668;BME280;59852;43.086;25.634;2022-10-31T02:13:23;99239.09;;;14.50;60.39
58668;BME280;59852;43.086;25.634;2022-10-31T02:15:50;99236.84;;;14.46;60.34
58668;BME280;59852;43.086;25.634;2022-10-31T02:18:16;99230.94;;;14.42;60.60
58668;BME280;59852;43.086;25.634;2022-10-31T02:23:28;99235.72;;;14.37;60.47
58668;BME280;59852;43.086;25.634;2022-10-31T02:26:07;99228.41;;;14.41;60.68
58668;BME280;59852;43.086;25.634;2022-10-31T02:34:21;99217.53;;;14.45;60.30
58668;BME280;59852;43.086;25.634;2022-10-31T02:36:57;99220.53;;;14.41;60.82
58668;BME280;59852;43.086;25.634;2022-10-31T02:42:04;99221.34;;;14.41;61.31
58668;BME280;59852;43.086;25.634;2022-10-31T02:44:35;99211.59;;;14.10;62.03
58668;BME280;59852;43.086;25.634;2022-10-31T02:49:47;99205.59;;;14.19;61.25
58668;BME280;59852;43.086;25.634;2022-10-31T02:52:21;99205.22;;;14.57;60.83
58668;BME280;59852;43.086;25.634;2022-10-31T02:54:48;99217.13;;;14.72;60.21
58668;BME280;59852;43.086;25.634;2022-10-31T02:57:13;99220.09;;;14.47;60.61
58668;BME280;59852;43.086;25.634;2022-10-31T02:59:43;99226.75;;;14.51;61.18
58668;BME280;59852;43.086;25.634;2022-10-31T03:02:25;99236.72;;;14.47;58.14
58668;BME280;59852;43.086;25.634;2022-10-31T03:08:04;99245.50;;;14.35;60.25
58668;BME280;59852;43.086;25.634;2022-10-31T03:15:32;99249.94;;;14.34;60.17
58668;BME280;59852;43.086;25.634;2022-10-31T03:20:34;99257.38;;;14.18;58.67
58668;BME280;59852;43.086;25.634;2022-10-31T03:23:02;99263.94;;;14.13;58.79
58668;BME280;59852;43.086;25.634;2022-10-31T03:25:29;99265.03;;;14.10;58.26
58668;BME280;59852;43.086;25.634;2022-10-31T03:27:54;99261.31;;;14.01;58.03
58668;BME280;59852;43.086;25.634;2022-10-31T03:30:21;99262.84;;;13.93;58.52
58668;BME280;59852;43.086;25.634;2022-10-31T03:32:48;99268.63;;;14.09;58.57
58668;BME280;59852;43.086;25.634;2022-10-31T03:35:14;99266.34;;;14.27;57.97
58668;BME280;59852;43.086;25.634;2022-10-31T03:37:40;99265.53;;;14.26;57.31
58668;BME280;59852;43.086;25.634;2022-10-31T03:40:07;99267.06;;;14.18;57.19
58668;BME280;59852;43.086;25.634;2022-10-31T03:42:34;99266.19;;;13.95;57.99
58668;BME280;59852;43.086;25.634;2022-10-31T03:47:27;99278.75;;;14.02;58.75
58668;BME280;59852;43.086;25.634;2022-10-31T03:49:52;99276.72;;;13.95;58.89
58668;BME280;59852;43.086;25.634;2022-10-31T03:54:44;99266.81;;;14.10;58.65
58668;BME280;59852;43.086;25.634;2022-10-31T03:59:50;99275.53;;;13.88;59.63
58668;BME280;59852;43.086;25.634;2022-10-31T04:02:18;99285.03;;;13.66;60.08
58668;BME280;59852;43.086;25.634;2022-10-31T04:04:44;99284.31;;;13.75;60.03
58668;BME280;59852;43.086;25.634;2022-10-31T04:07:10;99286.88;;;13.88;60.40
58668;BME280;59852;43.086;25.634;2022-10-31T04:09:36;99285.16;;;13.76;60.45
58668;BME280;59852;43.086;25.634;2022-10-31T04:12:03;99286.75;;;13.78;60.15
58668;BME280;59852;43.086;25.634;2022-10-31T04:14:31;99287.09;;;13.85;60.57
58668;BME280;59852;43.086;25.634;2022-10-31T04:16:58;99293.53;;;13.70;60.63
58668;BME280;59852;43.086;25.634;2022-10-31T04:19:24;99292.34;;;13.74;60.38
58668;BME280;59852;43.086;25.634;2022-10-31T04:21:49;99298.97;;;14.02;60.13
58668;BME280;59852;43.086;25.634;2022-10-31T04:24:14;99295.63;;;13.89;60.76
58668;BME280;59852;43.086;25.634;2022-10-31T04:26:40;99305.69;;;14.06;60.56
58668;BME280;59852;43.086;25.634;2022-10-31T04:29:05;99300.66;;;14.03;60.43
58668;BME280;59852;43.086;25.634;2022-10-31T04:31:30;99297.81;;;14.17;60.40
58668;BME280;59852;43.086;25.634;2022-10-31T04:33:56;99305.09;;;14.25;59.79
58668;BME280;59852;43.086;25.634;2022-10-31T04:36:21;99310.00;;;14.29;59.46
58668;BME280;59852;43.086;25.634;2022-10-31T04:38:46;99310.97;;;14.28;59.04
58668;BME280;59852;43.086;25.634;2022-10-31T04:41:12;99314.28;;;14.08;59.82
58668;BME280;59852;43.086;25.634;2022-10-31T04:43:37;99318.72;;;14.07;59.89
58668;BME280;59852;43.086;25.634;2022-10-31T04:46:02;99318.09;;;14.04;60.18
58668;BME280;59852;43.086;25.634;2022-10-31T04:48:28;99316.53;;;14.01;59.72
58668;BME280;59852;43.086;25.634;2022-10-31T04:50:58;99321.28;;;13.85;59.83
58668;BME280;59852;43.086;25.634;2022-10-31T04:53:23;99323.97;;;14.07;59.83
58668;BME280;59852;43.086;25.634;2022-10-31T04:55:49;99324.56;;;14.11;59.51
58668;BME280;59852;43.086;25.634;2022-10-31T04:58:14;99328.16;;;14.10;59.45
58668;BME280;59852;43.086;25.634;2022-10-31T05:00:39;99334.25;;;13.99;60.25
58668;BME280;59852;43.086;25.634;2022-10-31T05:03:05;99339.91;;;14.17;59.96
58668;BME280;59852;43.086;25.634;2022-10-31T05:05:31;99335.84;;;14.35;59.37
58668;BME280;59852;43.086;25.634;2022-10-31T05:07:56;99334.38;;;14.20;59.56
58668;BME280;59852;43.086;25.634;2022-10-31T05:10:23;99344.19;;;14.18;59.73
58668;BME280;59852;43.086;25.634;2022-10-31T05:12:49;99337.19;;;13.84;60.87
58668;BME280;59852;43.086;25.634;2022-10-31T05:15:15;99356.78;;;13.80;60.54
58668;BME280;59852;43.086;25.634;2022-10-31T05:17:41;99354.19;;;13.91;60.25
58668;BME280;59852;43.086;25.634;2022-10-31T05:20:07;99350.63;;;14.14;60.06
58668;BME280;59852;43.086;25.634;2022-10-31T05:22:32;99353.19;;;14.94;57.45
58668;BME280;59852;43.086;25.634;2022-10-31T05:24:58;99363.38;;;14.54;58.17
58668;BME280;59852;43.086;25.634;2022-10-31T05:27:23;99363.59;;;14.28;58.91
58668;BME280;59852;43.086;25.634;2022-10-31T05:29:48;99366.53;;;14.01;60.03
58668;BME280;59852;43.086;25.634;2022-10-31T05:32:14;99362.16;;;13.78;60.50
58668;BME280;59852;43.086;25.634;2022-10-31T05:34:39;99375.97;;;13.69;61.02
58668;BME280;59852;43.086;25.634;2022-10-31T05:37:05;99368.31;;;13.66;61.02
58668;BME280;59852;43.086;25.634;2022-10-31T05:39:30;99376.09;;;13.67;61.79
58668;BME280;59852;43.086;25.634;2022-10-31T05:41:55;99376.50;;;13.85;61.14
58668;BME280;59852;43.086;25.634;2022-10-31T05:44:21;99377.97;;;14.35;59.52
58668;BME280;59852;43.086;25.634;2022-10-31T05:46:46;99374.56;;;17.80;49.71
58668;BME280;59852;43.086;25.634;2022-10-31T05:49:11;99377.19;;;16.91;51.70
58668;BME280;59852;43.086;25.634;2022-10-31T05:51:37;99385.00;;;17.72;49.53
58668;BME280;59852;43.086;25.634;2022-10-31T05:54:02;99375.97;;;17.74;48.60
58668;BME280;59852;43.086;25.634;2022-10-31T05:56:28;99378.81;;;16.11;53.83
58668;BME280;59852;43.086;25.634;2022-10-31T05:58:53;99378.47;;;14.97;57.68
58668;BME280;59852;43.086;25.634;2022-10-31T06:01:18;99382.19;;;14.49;58.32
58668;BME280;59852;43.086;25.634;2022-10-31T06:03:44;99378.19;;;14.44;58.27
58668;BME280;59852;43.086;25.634;2022-10-31T06:06:09;99383.22;;;14.35;59.21
58668;BME280;59852;43.086;25.634;2022-10-31T06:08:35;99385.53;;;14.51;59.61
58668;BME280;59852;43.086;25.634;2022-10-31T06:11:00;99388.75;;;14.55;59.43
58668;BME280;59852;43.086;25.634;2022-10-31T06:13:25;99389.13;;;14.50;58.59
58668;BME280;59852;43.086;25.634;2022-10-31T06:15:51;99388.16;;;14.51;58.39
58668;BME280;59852;43.086;25.634;2022-10-31T06:18:16;99392.25;;;14.55;57.83
58668;BME280;59852;43.086;25.634;2022-10-31T06:20:41;99396.78;;;14.53;58.37
58668;BME280;59852;43.086;25.634;2022-10-31T06:23:07;99393.38;;;14.40;58.81
58668;BME280;59852;43.086;25.634;2022-10-31T06:25:32;99398.44;;;14.54;58.04
58668;BME280;59852;43.086;25.634;2022-10-31T06:27:58;99399.66;;;14.61;58.27
58668;BME280;59852;43.086;25.634;2022-10-31T06:30:23;99401.47;;;15.06;57.03
58668;BME280;59852;43.086;25.634;2022-10-31T06:32:49;99411.03;;;14.73;57.74
58668;BME280;59852;43.086;25.634;2022-10-31T06:35:14;99411.97;;;14.83;57.61
58668;BME280;59852;43.086;25.634;2022-10-31T06:37:40;99412.34;;;15.01;57.81
58668;BME280;59852;43.086;25.634;2022-10-31T06:40:05;99409.72;;;14.56;57.88
58668;BME280;59852;43.086;25.634;2022-10-31T06:42:31;99411.69;;;15.31;57.42
58668;BME280;59852;43.086;25.634;2022-10-31T06:44:56;99411.94;;;15.39;55.68
58668;BME280;59852;43.086;25.634;2022-10-31T06:47:21;99417.75;;;15.97;54.76
58668;BME280;59852;43.086;25.634;2022-10-31T06:49:47;99422.66;;;15.59;55.90
58668;BME280;59852;43.086;25.634;2022-10-31T06:52:12;99416.56;;;15.58;56.70
58668;BME280;59852;43.086;25.634;2022-10-31T06:54:38;99413.53;;;15.74;54.58
58668;BME280;59852;43.086;25.634;2022-10-31T06:57:03;99424.97;;;15.95;55.07
58668;BME280;59852;43.086;25.634;2022-10-31T06:59:28;99421.56;;;16.46;54.21
58668;BME280;59852;43.086;25.634;2022-10-31T07:01:54;99424.84;;;15.65;52.65
58668;BME280;59852;43.086;25.634;2022-10-31T07:04:19;99430.97;;;17.81;49.51
58668;BME280;59852;43.086;25.634;2022-10-31T07:06:44;99422.19;;;18.85;47.06
58668;BME280;59852;43.086;25.634;2022-10-31T07:09:10;99422.16;;;19.22;45.69
58668;BME280;59852;43.086;25.634;2022-10-31T07:11:35;99415.06;;;18.39;47.25
58668;BME280;59852;43.086;25.634;2022-10-31T07:14:00;99421.50;;;17.97;49.45
58668;BME280;59852;43.086;25.634;2022-10-31T07:16:26;99418.03;;;19.55;45.46
58668;BME280;59852;43.086;25.634;2022-10-31T07:18:51;99415.53;;;19.99;45.48
58668;BME280;59852;43.086;25.634;2022-10-31T07:21:16;99410.50;;;20.57;42.70
58668;BME280;59852;43.086;25.634;2022-10-31T07:23:42;99404.81;;;20.78;42.70
58668;BME280;59852;43.086;25.634;2022-10-31T07:26:07;99409.38;;;21.02;41.41
58668;BME280;59852;43.086;25.634;2022-10-31T07:28:32;99408.69;;;21.26;42.14
58668;BME280;59852;43.086;25.634;2022-10-31T07:30:58;99410.41;;;21.52;41.33
58668;BME280;59852;43.086;25.634;2022-10-31T07:33:23;99410.44;;;21.60;41.01
58668;BME280;59852;43.086;25.634;2022-10-31T07:35:51;99415.44;;;21.55;40.69
58668;BME280;59852;43.086;25.634;2022-10-31T07:38:16;99416.97;;;21.82;40.81
58668;BME280;59852;43.086;25.634;2022-10-31T07:40:42;99413.66;;;21.88;40.88
58668;BME280;59852;43.086;25.634;2022-10-31T07:43:07;99406.69;;;22.27;38.75
58668;BME280;59852;43.086;25.634;2022-10-31T07:45:33;99405.34;;;22.40;39.71
58668;BME280;59852;43.086;25.634;2022-10-31T07:47:58;99401.81;;;22.64;38.40
58668;BME280;59852;43.086;25.634;2022-10-31T07:50:24;99410.19;;;21.29;42.97
58668;BME280;59852;43.086;25.634;2022-10-31T07:55:25;99400.03;;;22.07;40.27
58668;BME280;59852;43.086;25.634;2022-10-31T07:57:57;99398.22;;;22.96;38.45
58668;BME280;59852;43.086;25.634;2022-10-31T08:00:22;99402.53;;;23.05;38.94
58668;BME280;59852;43.086;25.634;2022-10-31T08:02:48;99401.69;;;23.43;37.97
58668;BME280;59852;43.086;25.634;2022-10-31T08:05:13;99394.63;;;22.64;39.34
58668;BME280;59852;43.086;25.634;2022-10-31T08:07:38;99396.63;;;23.17;39.17
58668;BME280;59852;43.086;25.634;2022-10-31T08:10:04;99388.91;;;23.31;37.45
58668;BME280;59852;43.086;25.634;2022-10-31T08:12:29;99393.00;;;23.41;36.94
58668;BME280;59852;43.086;25.634;2022-10-31T08:14:55;99386.09;;;23.24;37.06
58668;BME280;59852;43.086;25.634;2022-10-31T08:17:20;99393.44;;;22.91;38.70
58668;BME280;59852;43.086;25.634;2022-10-31T08:19:45;99398.88;;;22.18;39.48
58668;BME280;59852;43.086;25.634;2022-10-31T08:22:11;99389.66;;;21.80;40.11
58668;BME280;59852;43.086;25.634;2022-10-31T08:24:36;99400.94;;;21.49;41.86
58668;BME280;59852;43.086;25.634;2022-10-31T08:27:02;99390.44;;;20.97;43.36
58668;BME280;59852;43.086;25.634;2022-10-31T08:29:27;99390.34;;;21.23;42.11
58668;BME280;59852;43.086;25.634;2022-10-31T08:31:52;99385.94;;;20.98;43.33
58668;BME280;59852;43.086;25.634;2022-10-31T08:34:18;99391.19;;;20.81;44.05
58668;BME280;59852;43.086;25.634;2022-10-31T08:36:43;99381.91;;;20.33;44.44
58668;BME280;59852;43.086;25.634;2022-10-31T08:39:11;99383.75;;;20.59;44.36
58668;BME280;59852;43.086;25.634;2022-10-31T08:41:36;99381.72;;;20.53;44.51
58668;BME280;59852;43.086;25.634;2022-10-31T08:44:01;99386.47;;;20.23;45.44
58668;BME280;59852;43.086;25.634;2022-10-31T08:46:27;99388.81;;;20.44;47.07
58668;BME280;59852;43.086;25.634;2022-10-31T08:48:52;99382.78;;;20.60;44.26
58668;BME280;59852;43.086;25.634;2022-10-31T08:51:17;99383.72;;;20.33;45.44
58668;BME280;59852;43.086;25.634;2022-10-31T08:53:43;99391.53;;;20.34;45.63
58668;BME280;59852;43.086;25.634;2022-10-31T08:56:08;99387.59;;;20.56;44.95
58668;BME280;59852;43.086;25.634;2022-10-31T08:58:34;99397.38;;;20.56;44.19
58668;BME280;59852;43.086;25.634;2022-10-31T09:00:59;99395.06;;;20.61;45.80
58668;BME280;59852;43.086;25.634;2022-10-31T09:03:26;99398.88;;;20.58;43.53
58668;BME280;59852;43.086;25.634;2022-10-31T09:05:55;99404.91;;;20.25;44.76
58668;BME280;59852;43.086;25.634;2022-10-31T09:08:21;99402.69;;;20.56;45.81
58668;BME280;59852;43.086;25.634;2022-10-31T09:10:46;99397.78;;;20.43;44.81
58668;BME280;59852;43.086;25.634;2022-10-31T09:13:13;99398.94;;;20.23;44.79
58668;BME280;59852;43.086;25.634;2022-10-31T09:15:39;99392.84;;;20.48;46.36
58668;BME280;59852;43.086;25.634;2022-10-31T09:18:05;99396.94;;;20.25;44.35
58668;BME280;59852;43.086;25.634;2022-10-31T09:20:31;99396.50;;;20.29;45.76
58668;BME280;59852;43.086;25.634;2022-10-31T09:23:02;99400.25;;;20.19;45.29
58668;BME280;59852;43.086;25.634;2022-10-31T09:25:27;99397.41;;;20.38;45.58
58668;BME280;59852;43.086;25.634;2022-10-31T09:27:56;99399.31;;;20.46;46.03
58668;BME280;59852;43.086;25.634;2022-10-31T09:30:22;99397.75;;;20.17;44.96
58668;BME280;59852;43.086;25.634;2022-10-31T09:32:48;99402.81;;;20.28;44.88
58668;BME280;59852;43.086;25.634;2022-10-31T09:35:13;99401.50;;;20.32;44.57
58668;BME280;59852;43.086;25.634;2022-10-31T09:37:38;99396.81;;;20.26;44.68
58668;BME280;59852;43.086;25.634;2022-10-31T09:40:04;99396.72;;;20.36;44.48
58668;BME280;59852;43.086;25.634;2022-10-31T09:45:18;99391.69;;;20.33;45.34
58668;BME280;59852;43.086;25.634;2022-10-31T09:47:50;99388.97;;;19.81;45.33
58668;BME280;59852;43.086;25.634;2022-10-31T09:52:44;99383.44;;;20.36;44.91
58668;BME280;59852;43.086;25.634;2022-10-31T09:55:23;99373.88;;;20.43;44.62
58668;BME280;59852;43.086;25.634;2022-10-31T09:57:51;99376.56;;;20.51;45.57
58668;BME280;59852;43.086;25.634;2022-10-31T10:00:18;99370.81;;;20.64;45.17
58668;BME280;59852;43.086;25.634;2022-10-31T10:05:34;99367.56;;;20.44;44.54
58668;BME280;59852;43.086;25.634;2022-10-31T10:10:53;99373.59;;;20.54;44.39
58668;BME280;59852;43.086;25.634;2022-10-31T10:13:30;99366.00;;;20.59;44.36
58668;BME280;59852;43.086;25.634;2022-10-31T10:16:20;99364.78;;;20.54;46.32
58668;BME280;59852;43.086;25.634;2022-10-31T10:21:25;99363.22;;;20.43;45.47
58668;BME280;59852;43.086;25.634;2022-10-31T10:29:34;99375.97;;;20.57;45.62
58668;BME280;59852;43.086;25.634;2022-10-31T10:32:02;99372.31;;;20.58;44.10
58668;BME280;59852;43.086;25.634;2022-10-31T10:34:35;99366.44;;;20.81;44.66
58668;BME280;59852;43.086;25.634;2022-10-31T10:37:22;99364.59;;;20.81;44.51
58668;BME280;59852;43.086;25.634;2022-10-31T10:39:50;99365.25;;;20.75;43.95
58668;BME280;59852;43.086;25.634;2022-10-31T10:42:16;99361.19;;;20.63;43.97
58668;BME280;59852;43.086;25.634;2022-10-31T10:45:00;99359.78;;;20.77;43.76
58668;BME280;59852;43.086;25.634;2022-10-31T10:47:54;99363.44;;;20.76;44.73
58668;BME280;59852;43.086;25.634;2022-10-31T10:50:27;99355.41;;;20.68;43.71
58668;BME280;59852;43.086;25.634;2022-10-31T10:52:56;99357.75;;;20.71;43.40
58668;BME280;59852;43.086;25.634;2022-10-31T11:00:26;99352.19;;;20.90;42.99
58668;BME280;59852;43.086;25.634;2022-10-31T11:02:52;99349.44;;;20.74;43.35
58668;BME280;59852;43.086;25.634;2022-10-31T11:05:41;99349.00;;;20.86;43.65
58668;BME280;59852;43.086;25.634;2022-10-31T11:08:04;99344.72;;;21.02;44.61
58668;BME280;59852;43.086;25.634;2022-10-31T11:10:30;99353.72;;;21.01;43.36
58668;BME280;59852;43.086;25.634;2022-10-31T11:13:37;99342.91;;;21.02;43.53
58668;BME280;59852;43.086;25.634;2022-10-31T11:15:51;99345.91;;;20.99;42.81
58668;BME280;59852;43.086;25.634;2022-10-31T11:18:29;99334.75;;;20.96;42.93
58668;BME280;59852;43.086;25.634;2022-10-31T11:20:55;99329.09;;;20.99;42.92
58668;BME280;59852;43.086;25.634;2022-10-31T11:23:22;99329.75;;;20.92;43.25
58668;BME280;59852;43.086;25.634;2022-10-31T11:25:58;99322.75;;;20.91;43.24
58668;BME280;59852;43.086;25.634;2022-10-31T11:28:25;99323.41;;;20.94;42.99
58668;BME280;59852;43.086;25.634;2022-10-31T11:35:47;99323.06;;;20.80;42.76
58668;BME280;59852;43.086;25.634;2022-10-31T11:38:17;99323.69;;;20.74;43.39
58668;BME280;59852;43.086;25.634;2022-10-31T11:41:05;99323.69;;;20.74;43.46
58668;BME280;59852;43.086;25.634;2022-10-31T11:43:33;99325.00;;;20.70;43.03
58668;BME280;59852;43.086;25.634;2022-10-31T11:45:59;99317.19;;;20.69;43.48
58668;BME280;59852;43.086;25.634;2022-10-31T11:48:25;99312.75;;;20.77;43.87
58668;BME280;59852;43.086;25.634;2022-10-31T11:50:57;99315.03;;;20.72;43.25
58668;BME280;59852;43.086;25.634;2022-10-31T11:53:27;99319.69;;;20.70;43.73
58668;BME280;59852;43.086;25.634;2022-10-31T11:56:27;99314.03;;;20.73;44.36
58668;BME280;59852;43.086;25.634;2022-10-31T11:59:01;99309.72;;;20.72;44.90
58668;BME280;59852;43.086;25.634;2022-10-31T12:01:28;99311.84;;;20.60;43.72
58668;BME280;59852;43.086;25.634;2022-10-31T12:06:27;99310.22;;;20.68;43.78
58668;BME280;59852;43.086;25.634;2022-10-31T12:08:54;99307.72;;;20.66;44.06
58668;BME280;59852;43.086;25.634;2022-10-31T12:16:39;99307.97;;;20.55;43.88
58668;BME280;59852;43.086;25.634;2022-10-31T12:19:14;99301.03;;;20.62;44.23
58668;BME280;59852;43.086;25.634;2022-10-31T12:24:18;99305.84;;;20.58;44.01
58668;BME280;59852;43.086;25.634;2022-10-31T12:29:37;99303.53;;;20.63;43.80
58668;BME280;59852;43.086;25.634;2022-10-31T12:34:45;99298.47;;;20.78;44.38
58668;BME280;59852;43.086;25.634;2022-10-31T12:57:42;99302.28;;;20.76;43.93
58668;BME280;59852;43.086;25.634;2022-10-31T13:00:14;99301.13;;;20.78;43.72
58668;BME280;59852;43.086;25.634;2022-10-31T13:07:42;99307.91;;;20.73;43.49
58668;BME280;59852;43.086;25.634;2022-10-31T13:12:37;99311.06;;;20.68;43.89
58668;BME280;59852;43.086;25.634;2022-10-31T13:15:21;99310.19;;;20.59;43.44
58668;BME280;59852;43.086;25.634;2022-10-31T13:17:48;99309.50;;;20.57;43.78
58668;BME280;59852;43.086;25.634;2022-10-31T13:22:42;99312.13;;;20.49;44.10
58668;BME280;59852;43.086;25.634;2022-10-31T13:30:18;99317.84;;;20.37;46.14
58668;BME280;59852;43.086;25.634;2022-10-31T13:32:55;99311.31;;;20.31;45.66
58668;BME280;59852;43.086;25.634;2022-10-31T13:35:29;99313.63;;;20.26;46.04
58668;BME280;59852;43.086;25.634;2022-10-31T13:40:49;99313.78;;;20.24;45.31
58668;BME280;59852;43.086;25.634;2022-10-31T13:43:18;99313.09;;;20.22;45.46
58668;BME280;59852;43.086;25.634;2022-10-31T13:45:47;99321.91;;;20.23;46.25
58668;BME280;59852;43.086;25.634;2022-10-31T13:50:39;99313.75;;;20.16;46.31
58668;BME280;59852;43.086;25.634;2022-10-31T13:53:11;99321.72;;;20.16;46.84
58668;BME280;59852;43.086;25.634;2022-10-31T13:55:41;99318.22;;;20.16;45.52
58668;BME280;59852;43.086;25.634;2022-10-31T14:00:44;99321.66;;;20.08;45.95
58668;BME280;59852;43.086;25.634;2022-10-31T14:03:17;99314.53;;;20.09;45.55
58668;BME280;59852;43.086;25.634;2022-10-31T14:05:44;99312.16;;;20.05;45.41
58668;BME280;59852;43.086;25.634;2022-10-31T14:08:18;99315.81;;;20.04;46.59
58668;BME280;59852;43.086;25.634;2022-10-31T14:19:27;99319.88;;;19.91;45.84
58668;BME280;59852;43.086;25.634;2022-10-31T14:21:52;99330.81;;;19.88;47.74
58668;BME280;59852;43.086;25.634;2022-10-31T14:31:56;99330.19;;;19.76;45.64
58668;BME280;59852;43.086;25.634;2022-10-31T14:34:23;99323.53;;;19.72;47.25
58668;BME280;59852;43.086;25.634;2022-10-31T15:06:59;99323.31;;;19.02;48.30
58668;BME280;59852;43.086;25.634;2022-10-31T15:15:55;99327.13;;;18.72;48.52
58668;BME280;59852;43.086;25.634;2022-10-31T15:18:22;99327.84;;;18.65;48.99
58668;BME280;59852;43.086;25.634;2022-10-31T15:20:48;99332.44;;;18.62;48.83
58668;BME280;59852;43.086;25.634;2022-10-31T15:23:36;99336.06;;;18.61;49.09
58668;BME280;59852;43.086;25.634;2022-10-31T15:26:01;99333.16;;;18.55;48.87
58668;BME280;59852;43.086;25.634;2022-10-31T15:28:28;99330.81;;;18.52;49.22
58668;BME280;59852;43.086;25.634;2022-10-31T15:30:54;99332.81;;;18.40;49.42
58668;BME280;59852;43.086;25.634;2022-10-31T15:33:22;99337.25;;;18.40;49.58
58668;BME280;59852;43.086;25.634;2022-10-31T15:35:54;99339.66;;;18.33;49.69
58668;BME280;59852;43.086;25.634;2022-10-31T15:38:21;99344.00;;;18.24;50.05
58668;BME280;59852;43.086;25.634;2022-10-31T15:40:53;99338.53;;;18.26;49.77
58668;BME280;59852;43.086;25.634;2022-10-31T15:43:19;99343.25;;;18.42;49.54
58668;BME280;59852;43.086;25.634;2022-10-31T15:45:45;99348.72;;;18.30;49.58
58668;BME280;59852;43.086;25.634;2022-10-31T15:48:17;99348.59;;;18.22;50.04
58668;BME280;59852;43.086;25.634;2022-10-31T15:51:01;99357.25;;;18.15;50.21